createdAt,value
2017-11-30T00:00:49.880Z,6.90
2017-11-30T00:03:18.185Z,6.91
2017-11-30T00:05:46.530Z,6.88
2017-11-30T00:08:14.855Z,6.89
2017-11-30T00:10:43.175Z,6.91
2017-11-30T00:13:11.486Z,6.87
2017-11-30T00:15:39.807Z,6.85
2017-11-30T00:18:08.212Z,6.88
2017-11-30T00:20:37.343Z,6.94
2017-11-30T00:23:05.698Z,7.03
2017-11-30T00:25:36.784Z,7.11
2017-11-30T00:28:05.275Z,7.17
2017-11-30T00:30:34.356Z,7.22
2017-11-30T00:33:02.670Z,7.25
2017-11-30T00:35:31.053Z,7.26
2017-11-30T00:37:59.375Z,7.20
2017-11-30T00:40:27.674Z,7.14
2017-11-30T00:43:16.600Z,7.07
2017-11-30T00:45:47.019Z,7.02
2017-11-30T00:48:16.165Z,7.01
2017-11-30T00:50:45.313Z,6.97
2017-11-30T00:53:13.626Z,6.93
2017-11-30T00:55:41.928Z,6.87
2017-11-30T00:58:10.244Z,6.79
2017-11-30T01:00:38.561Z,6.67
2017-11-30T01:03:06.888Z,6.56
2017-11-30T01:05:35.209Z,6.52
2017-11-30T01:08:03.537Z,6.47
2017-11-30T01:10:31.832Z,6.56
2017-11-30T01:13:00.145Z,6.62
2017-11-30T01:15:28.451Z,6.55
2017-11-30T01:17:56.802Z,6.45
2017-11-30T01:20:25.146Z,6.36
2017-11-30T01:22:54.228Z,6.28
2017-11-30T01:25:22.526Z,6.25
2017-11-30T01:27:51.606Z,6.34
2017-11-30T01:30:19.998Z,6.49
2017-11-30T01:32:49.075Z,6.64
2017-11-30T01:35:17.388Z,6.66
2017-11-30T01:37:46.464Z,6.47
2017-11-30T01:40:14.793Z,6.45
2017-11-30T01:42:43.117Z,6.48
2017-11-30T01:45:12.193Z,6.47
2017-11-30T01:47:40.487Z,6.45
2017-11-30T01:50:08.818Z,6.49
2017-11-30T01:52:37.188Z,6.56
2017-11-30T01:55:06.286Z,6.60
2017-11-30T01:57:34.625Z,6.67
2017-11-30T02:00:03.176Z,6.75
2017-11-30T02:02:31.499Z,6.80
2017-11-30T02:04:59.786Z,6.82
2017-11-30T02:07:28.102Z,6.81
2017-11-30T02:09:56.436Z,6.73
2017-11-30T02:12:24.750Z,6.61
2017-11-30T02:14:53.835Z,6.47
2017-11-30T02:17:22.929Z,6.43
2017-11-30T02:19:51.257Z,6.13
2017-11-30T02:22:21.986Z,6.04
2017-11-30T02:24:50.897Z,5.97
2017-11-30T02:27:22.266Z,5.95
2017-11-30T02:29:50.590Z,5.95
2017-11-30T02:32:19.659Z,5.95
2017-11-30T02:34:51.298Z,5.91
2017-11-30T02:37:21.811Z,5.93
2017-11-30T02:39:50.137Z,5.94
2017-11-30T02:42:18.440Z,6.03
2017-11-30T02:44:47.530Z,6.01
2017-11-30T02:47:15.956Z,5.99
2017-11-30T02:49:45.009Z,6.04
2017-11-30T02:52:14.362Z,6.16
2017-11-30T02:54:44.877Z,6.21
2017-11-30T02:57:16.593Z,6.27
2017-11-30T02:59:46.916Z,6.26
2017-11-30T03:02:18.164Z,6.30
2017-11-30T03:04:47.472Z,6.36
2017-11-30T03:07:17.169Z,6.43
2017-11-30T03:09:45.498Z,6.41
2017-11-30T03:12:13.830Z,6.37
2017-11-30T03:14:42.159Z,6.30
2017-11-30T03:17:11.247Z,6.19
2017-11-30T03:19:40.334Z,6.10
2017-11-30T03:22:08.825Z,6.05
2017-11-30T03:24:37.148Z,6.14
2017-11-30T03:27:05.456Z,6.23
2017-11-30T03:29:34.622Z,6.21
2017-11-30T03:32:02.949Z,6.19
2017-11-30T03:34:31.263Z,6.16
2017-11-30T03:37:00.506Z,6.16
2017-11-30T03:39:28.832Z,6.14
2017-11-30T03:41:57.907Z,6.16
2017-11-30T03:44:29.781Z,6.18
2017-11-30T03:47:00.059Z,6.22
2017-11-30T03:49:32.830Z,6.27
2017-11-30T03:52:01.139Z,6.30
2017-11-30T03:54:29.449Z,6.29
2017-11-30T03:56:57.793Z,6.15
2017-11-30T03:59:26.277Z,6.23
2017-11-30T04:01:54.601Z,6.33
2017-11-30T04:04:22.921Z,6.46
2017-11-30T04:06:51.231Z,6.58
2017-11-30T04:09:19.755Z,6.67
2017-11-30T04:11:49.153Z,6.75
2017-11-30T04:14:17.490Z,6.82
2017-11-30T04:16:45.793Z,6.87
2017-11-30T04:19:14.129Z,6.92
2017-11-30T04:21:42.435Z,7.00
2017-11-30T04:24:10.760Z,6.99
2017-11-30T04:26:39.045Z,6.84
2017-11-30T04:29:07.423Z,6.72
2017-11-30T04:31:35.729Z,6.63
2017-11-30T04:34:06.418Z,6.60
2017-11-30T04:36:34.771Z,6.59
2017-11-30T04:39:03.081Z,6.55
2017-11-30T04:41:31.373Z,6.54
2017-11-30T04:43:59.677Z,6.56
2017-11-30T04:46:28.741Z,6.55
2017-11-30T04:48:57.075Z,6.49
2017-11-30T04:51:25.396Z,6.36
2017-11-30T04:53:53.720Z,6.23
2017-11-30T04:56:22.827Z,6.12
2017-11-30T04:58:51.917Z,6.04
2017-11-30T05:01:20.239Z,5.95
2017-11-30T05:03:48.556Z,5.86
2017-11-30T05:06:16.872Z,5.80
2017-11-30T05:08:45.947Z,5.76
2017-11-30T05:11:14.253Z,5.58
2017-11-30T05:13:42.586Z,5.61
2017-11-30T05:16:10.899Z,5.61
2017-11-30T05:18:39.981Z,5.63
2017-11-30T05:21:09.055Z,5.70
2017-11-30T05:23:37.395Z,5.79
2017-11-30T05:26:06.458Z,5.88
2017-11-30T05:28:34.804Z,5.95
2017-11-30T05:31:03.181Z,6.04
2017-11-30T05:33:31.495Z,6.21
2017-11-30T05:35:59.814Z,6.40
2017-11-30T05:38:28.129Z,6.50
2017-11-30T05:40:56.450Z,6.50
2017-11-30T05:43:26.296Z,6.53
2017-11-30T05:45:55.388Z,6.55
2017-11-30T05:48:24.487Z,6.62
2017-11-30T05:50:53.585Z,6.64
2017-11-30T05:53:22.662Z,6.59
2017-11-30T05:55:52.469Z,6.51
2017-11-30T05:58:20.760Z,6.42
2017-11-30T06:00:49.154Z,6.34
2017-11-30T06:03:18.931Z,6.26
2017-11-30T06:05:47.257Z,6.13
2017-11-30T06:08:16.322Z,6.02
2017-11-30T06:10:44.629Z,5.94
2017-11-30T06:13:13.739Z,5.90
2017-11-30T06:15:42.874Z,5.86
2017-11-30T06:18:11.219Z,5.84
2017-11-30T06:20:40.315Z,5.86
2017-11-30T06:23:08.833Z,5.87
2017-11-30T06:25:38.007Z,5.88
2017-11-30T06:28:07.120Z,5.85
2017-11-30T06:30:35.482Z,5.80
2017-11-30T06:33:04.564Z,5.76
2017-11-30T06:35:34.462Z,5.71
2017-11-30T06:38:02.824Z,5.62
2017-11-30T06:40:31.257Z,5.54
2017-11-30T06:42:59.561Z,5.52
2017-11-30T06:45:27.873Z,5.54
2017-11-30T06:47:56.201Z,5.56
2017-11-30T06:50:25.297Z,5.56
2017-11-30T06:52:54.390Z,5.55
2017-11-30T06:55:23.471Z,5.56
2017-11-30T06:57:51.785Z,5.62
2017-11-30T07:00:20.917Z,5.73
2017-11-30T07:02:49.225Z,5.82
2017-11-30T07:05:17.540Z,5.90
2017-11-30T07:07:46.611Z,5.94
2017-11-30T07:10:15.693Z,5.95
2017-11-30T07:12:44.001Z,5.97
2017-11-30T07:15:12.331Z,6.00
2017-11-30T07:17:40.650Z,5.98
2017-11-30T07:20:08.971Z,5.96
2017-11-30T07:22:38.265Z,5.95
2017-11-30T07:25:07.368Z,5.94
2017-11-30T07:27:36.615Z,5.98
2017-11-30T07:30:04.989Z,6.05
2017-11-30T07:32:33.295Z,6.12
2017-11-30T07:35:01.613Z,6.18
2017-11-30T07:37:30.773Z,6.38
2017-11-30T07:39:59.091Z,6.51
2017-11-30T07:42:28.165Z,6.49
2017-11-30T07:44:56.475Z,6.43
2017-11-30T07:47:25.564Z,6.38
2017-11-30T07:49:54.643Z,6.31
2017-11-30T07:52:22.956Z,6.26
2017-11-30T07:54:52.184Z,6.20
2017-11-30T07:57:20.484Z,6.11
2017-11-30T07:59:48.791Z,6.07
2017-11-30T08:02:18.634Z,6.02
2017-11-30T08:04:47.703Z,5.98
2017-11-30T08:07:16.029Z,5.93
2017-11-30T08:09:44.375Z,5.89
2017-11-30T08:12:12.690Z,5.86
2017-11-30T08:14:41.037Z,5.87
2017-11-30T08:17:10.123Z,5.86
2017-11-30T08:19:38.520Z,5.86
2017-11-30T08:22:07.599Z,5.88
2017-11-30T08:24:35.901Z,5.86
2017-11-30T08:27:04.270Z,5.87
2017-11-30T08:29:33.417Z,5.96
2017-11-30T08:32:01.738Z,6.07
2017-11-30T08:34:30.122Z,6.25
2017-11-30T08:36:59.190Z,6.40
2017-11-30T08:39:27.528Z,6.52
2017-11-30T08:41:55.840Z,6.59
2017-11-30T08:44:24.141Z,6.67
2017-11-30T08:46:52.539Z,6.72
2017-11-30T08:49:20.842Z,6.73
2017-11-30T08:51:49.943Z,6.75
2017-11-30T08:54:19.774Z,6.78
2017-11-30T08:56:48.872Z,6.79
2017-11-30T08:59:18.105Z,6.78
2017-11-30T09:01:46.429Z,6.78
2017-11-30T09:04:14.781Z,6.77
2017-11-30T09:06:43.220Z,6.76
2017-11-30T09:09:12.353Z,6.75
2017-11-30T09:11:40.673Z,6.83
2017-11-30T09:14:08.990Z,6.94
2017-11-30T09:16:38.074Z,7.03
2017-11-30T09:19:06.397Z,7.09
2017-11-30T09:21:34.739Z,7.14
2017-11-30T09:24:03.875Z,7.18
2017-11-30T09:26:32.200Z,7.16
2017-11-30T09:29:02.014Z,7.16
2017-11-30T09:31:30.347Z,7.21
2017-11-30T09:33:58.682Z,7.33
2017-11-30T09:36:28.523Z,7.45
2017-11-30T09:38:57.607Z,7.53
2017-11-30T09:41:26.697Z,7.68
2017-11-30T09:43:55.086Z,7.71
2017-11-30T09:46:23.444Z,7.66
2017-11-30T09:48:51.762Z,7.63
2017-11-30T09:51:20.884Z,7.64
2017-11-30T09:53:49.176Z,7.64
2017-11-30T09:56:17.502Z,7.66
2017-11-30T09:58:47.305Z,7.72
2017-11-30T10:01:15.627Z,7.71
2017-11-30T10:03:44.710Z,7.71
2017-11-30T10:06:13.762Z,7.69
2017-11-30T10:08:42.086Z,7.71
2017-11-30T10:11:11.183Z,7.75
2017-11-30T10:13:40.298Z,7.80
2017-11-30T10:16:08.623Z,7.84
2017-11-30T10:18:36.938Z,7.84
2017-11-30T10:21:05.244Z,7.78
2017-11-30T10:23:34.355Z,7.71
2017-11-30T10:26:02.676Z,7.72
2017-11-30T10:28:30.977Z,7.66
2017-11-30T10:31:00.069Z,7.61
2017-11-30T10:33:28.411Z,7.64
2017-11-30T10:35:56.822Z,7.74
2017-11-30T10:38:25.131Z,7.82
2017-11-30T10:40:54.209Z,7.92
2017-11-30T10:43:23.310Z,8.05
2017-11-30T10:45:52.418Z,8.20
2017-11-30T10:48:21.492Z,8.30
2017-11-30T10:50:49.838Z,8.42
2017-11-30T10:53:18.156Z,8.49
2017-11-30T10:55:47.675Z,8.55
2017-11-30T10:58:15.988Z,8.58
2017-11-30T11:00:45.083Z,8.52
2017-11-30T11:03:14.149Z,8.52
2017-11-30T11:05:43.237Z,8.54
2017-11-30T11:08:11.628Z,8.63
2017-11-30T11:10:39.966Z,8.63
2017-11-30T11:13:08.297Z,8.59
2017-11-30T11:15:36.642Z,8.57
2017-11-30T11:18:04.949Z,8.57
2017-11-30T11:20:33.285Z,8.58
2017-11-30T11:23:01.590Z,8.60
2017-11-30T11:25:29.900Z,8.58
2017-11-30T11:27:58.208Z,8.59
2017-11-30T11:30:26.521Z,8.56
2017-11-30T11:32:54.836Z,8.55
2017-11-30T11:35:24.679Z,8.59
2017-11-30T11:37:53.781Z,8.62
2017-11-30T11:40:22.888Z,8.66
2017-11-30T11:42:51.229Z,8.64
2017-11-30T11:45:19.558Z,8.59
2017-11-30T11:47:47.880Z,8.62
2017-11-30T11:50:16.192Z,8.64
2017-11-30T11:52:45.282Z,8.61
2017-11-30T11:55:13.584Z,8.51
2017-11-30T11:57:42.655Z,8.33
2017-11-30T12:00:11.735Z,7.98
2017-11-30T12:02:40.087Z,7.65
2017-11-30T12:05:08.419Z,7.45
2017-11-30T12:07:36.726Z,7.29
2017-11-30T12:10:05.058Z,7.26
2017-11-30T12:12:33.492Z,7.20
2017-11-30T12:15:01.800Z,7.16
2017-11-30T12:17:30.113Z,7.18
2017-11-30T12:19:59.184Z,7.17
2017-11-30T12:22:27.497Z,7.17
2017-11-30T12:24:55.813Z,7.19
2017-11-30T12:27:24.900Z,7.18
2017-11-30T12:29:53.355Z,7.09
2017-11-30T12:32:21.693Z,7.03
2017-11-30T12:34:50.005Z,7.02
2017-11-30T12:37:18.323Z,7.02
2017-11-30T12:39:47.435Z,6.98
2017-11-30T12:42:16.585Z,6.98
2017-11-30T12:44:44.905Z,6.94
2017-11-30T12:47:14.060Z,6.90
2017-11-30T12:49:42.374Z,6.95
2017-11-30T12:52:10.854Z,6.98
2017-11-30T12:54:39.920Z,7.03
2017-11-30T12:59:36.552Z,7.13
2017-11-30T13:02:04.871Z,7.27
2017-11-30T13:04:33.216Z,7.42
2017-11-30T13:07:01.530Z,7.51
2017-11-30T13:09:29.839Z,7.49
2017-11-30T13:11:58.198Z,7.51
2017-11-30T13:14:26.846Z,7.53
2017-11-30T13:16:55.162Z,7.58
2017-11-30T13:19:23.473Z,7.65
2017-11-30T13:21:51.799Z,7.73
2017-11-30T13:24:20.122Z,7.78
2017-11-30T13:26:49.190Z,7.80
2017-11-30T13:29:17.521Z,7.80
2017-11-30T13:31:46.588Z,7.88
2017-11-30T13:34:14.906Z,7.94
2017-11-30T13:36:43.964Z,7.96
2017-11-30T13:39:12.384Z,8.04
2017-11-30T13:41:41.524Z,8.08
2017-11-30T13:44:09.912Z,8.12
2017-11-30T13:46:38.221Z,8.18
2017-11-30T13:49:06.533Z,8.36
2017-11-30T13:51:35.588Z,8.51
2017-11-30T13:54:03.904Z,8.50
2017-11-30T13:56:32.992Z,8.42
2017-11-30T13:59:01.292Z,8.29
2017-11-30T14:01:30.378Z,8.25
2017-11-30T14:03:59.477Z,8.25
2017-11-30T14:06:28.588Z,8.22
2017-11-30T14:08:57.748Z,8.19
2017-11-30T14:11:26.057Z,8.21
2017-11-30T14:13:55.134Z,8.29
2017-11-30T14:16:24.233Z,8.30
2017-11-30T14:18:52.554Z,8.24
2017-11-30T14:21:20.883Z,8.20
2017-11-30T14:23:51.610Z,8.15
2017-11-30T14:26:19.942Z,8.13
2017-11-30T14:28:49.020Z,8.14
2017-11-30T14:31:17.398Z,8.17
2017-11-30T14:33:45.786Z,8.16
2017-11-30T14:36:14.896Z,8.17
2017-11-30T14:38:43.979Z,8.26
2017-11-30T14:41:12.322Z,8.31
2017-11-30T14:43:40.758Z,8.34
2017-11-30T14:46:09.834Z,8.36
2017-11-30T14:48:38.910Z,8.29
2017-11-30T14:51:07.250Z,8.10
2017-11-30T14:53:36.324Z,7.90
2017-11-30T14:56:05.394Z,7.74
2017-11-30T14:58:33.693Z,7.57
2017-11-30T15:01:02.064Z,7.42
2017-11-30T15:03:30.374Z,7.22
2017-11-30T15:05:59.459Z,6.99
2017-11-30T15:08:27.778Z,6.84
2017-11-30T15:10:56.104Z,6.82
2017-11-30T15:13:25.926Z,6.72
2017-11-30T15:15:54.324Z,6.58
2017-11-30T15:18:25.037Z,6.40
2017-11-30T15:20:53.366Z,6.29
2017-11-30T15:23:21.698Z,6.23
2017-11-30T15:25:50.041Z,6.25
2017-11-30T15:28:18.414Z,6.23
2017-11-30T15:30:46.786Z,6.16
2017-11-30T15:33:15.105Z,6.20
2017-11-30T15:35:43.429Z,6.19
2017-11-30T15:38:12.504Z,6.14
2017-11-30T15:40:40.868Z,6.07
2017-11-30T15:43:09.194Z,6.06
2017-11-30T15:45:38.280Z,6.06
2017-11-30T15:48:07.369Z,6.03
2017-11-30T15:50:35.741Z,6.02
2017-11-30T15:53:04.060Z,5.98
2017-11-30T15:55:33.134Z,5.97
2017-11-30T15:58:02.216Z,5.97
2017-11-30T16:00:30.532Z,5.99
2017-11-30T16:02:59.612Z,6.03
2017-11-30T16:05:27.932Z,6.09
2017-11-30T16:07:56.263Z,6.15
2017-11-30T16:10:24.596Z,6.14
2017-11-30T16:12:53.760Z,6.11
2017-11-30T16:15:22.944Z,6.12
2017-11-30T16:17:51.280Z,6.15
2017-11-30T16:20:19.589Z,6.17
2017-11-30T16:22:48.714Z,6.10
2017-11-30T16:25:17.796Z,6.03
2017-11-30T16:27:46.972Z,5.95
2017-11-30T16:30:15.471Z,5.72
2017-11-30T16:32:43.790Z,5.57
2017-11-30T16:35:12.121Z,5.44
2017-11-30T16:37:41.202Z,5.46
2017-11-30T16:40:10.332Z,5.52
2017-11-30T16:42:38.646Z,5.45
2017-11-30T16:45:07.766Z,5.30
2017-11-30T16:47:36.184Z,5.17
2017-11-30T16:50:04.752Z,5.20
2017-11-30T16:52:33.136Z,5.19
2017-11-30T16:55:01.744Z,5.16
2017-11-30T16:57:30.088Z,5.21
2017-11-30T16:59:58.410Z,5.21
2017-11-30T17:02:26.733Z,5.21
2017-11-30T17:04:56.132Z,5.10
2017-11-30T17:07:25.350Z,5.00
2017-11-30T17:09:53.706Z,4.96
2017-11-30T17:12:22.798Z,4.92
2017-11-30T17:14:51.104Z,4.88
2017-11-30T17:17:20.740Z,4.81
2017-11-30T17:19:49.077Z,4.82
2017-11-30T17:22:18.197Z,4.77
2017-11-30T17:24:47.284Z,4.71
2017-11-30T17:27:16.360Z,4.75
2017-11-30T17:29:44.858Z,4.78
2017-11-30T17:32:13.180Z,4.80
2017-11-30T17:34:41.488Z,4.80
2017-11-30T17:37:21.252Z,4.82
2017-11-30T17:39:52.168Z,4.88
2017-11-30T17:42:28.936Z,4.88
2017-11-30T17:44:57.329Z,4.83
2017-11-30T17:47:25.677Z,4.80
2017-11-30T17:49:54.016Z,4.75
2017-11-30T17:52:23.145Z,4.70
2017-11-30T17:54:52.230Z,4.64
2017-11-30T17:57:21.348Z,4.62
2017-11-30T17:59:49.664Z,4.63
2017-11-30T18:02:18.700Z,4.67
2017-11-30T18:04:47.801Z,4.64
2017-11-30T18:07:16.937Z,4.63
2017-11-30T18:09:45.282Z,4.65
2017-11-30T18:12:13.556Z,4.68
2017-11-30T18:14:42.745Z,4.68
2017-11-30T18:17:11.840Z,4.66
2017-11-30T18:19:40.297Z,4.72
2017-11-30T18:22:09.420Z,4.82
2017-11-30T18:24:37.739Z,4.86
2017-11-30T18:27:06.068Z,4.90
2017-11-30T18:29:34.372Z,4.84
2017-11-30T18:32:03.548Z,4.76
2017-11-30T18:34:31.890Z,4.67
2017-11-30T18:37:00.212Z,4.63
2017-11-30T18:39:28.653Z,4.58
2017-11-30T18:41:57.181Z,4.59
2017-11-30T18:44:25.582Z,4.59
2017-11-30T18:46:53.914Z,4.59
2017-11-30T18:49:22.223Z,4.61
2017-11-30T18:51:50.535Z,4.64
2017-11-30T18:54:18.984Z,4.67
2017-11-30T18:56:47.402Z,4.70
2017-11-30T18:59:16.486Z,4.72
2017-11-30T19:01:44.847Z,4.66
2017-11-30T19:04:13.230Z,4.64
2017-11-30T19:06:41.570Z,4.64
2017-11-30T19:09:11.840Z,4.60
2017-11-30T19:11:40.245Z,4.62
2017-11-30T19:14:08.552Z,4.60
2017-11-30T19:16:37.785Z,4.60
2017-11-30T19:19:06.123Z,4.61
2017-11-30T19:21:34.426Z,4.65
2017-11-30T19:24:02.758Z,4.64
2017-11-30T19:26:31.682Z,4.60
2017-11-30T19:29:00.834Z,4.60
2017-11-30T19:31:29.198Z,4.60
2017-11-30T19:33:57.588Z,4.62
2017-11-30T19:36:25.888Z,4.61
2017-11-30T19:38:54.223Z,4.59
2017-11-30T19:41:23.357Z,4.57
2017-11-30T19:43:51.682Z,4.57
2017-11-30T19:46:20.794Z,4.58
2017-11-30T19:48:49.895Z,4.60
2017-11-30T19:51:19.047Z,4.65
2017-11-30T19:53:47.347Z,4.67
2017-11-30T19:56:15.696Z,4.67
2017-11-30T19:58:44.363Z,4.67
2017-11-30T20:01:12.708Z,4.65
2017-11-30T20:03:41.039Z,4.65
2017-11-30T20:06:09.356Z,4.64
2017-11-30T20:08:37.694Z,4.59
2017-11-30T20:11:06.015Z,4.56
2017-11-30T20:13:35.117Z,4.56
2017-11-30T20:16:03.484Z,4.57
2017-11-30T20:18:31.813Z,4.60
2017-11-30T20:21:00.930Z,4.59
2017-11-30T20:23:29.240Z,4.62
2017-11-30T20:25:57.552Z,4.65
2017-11-30T20:28:26.574Z,4.65
2017-11-30T20:30:54.845Z,4.68
2017-11-30T20:33:23.938Z,4.71
2017-11-30T20:35:53.217Z,4.74
2017-11-30T20:38:21.560Z,4.77
2017-11-30T20:40:49.860Z,4.78
2017-11-30T20:43:18.161Z,4.78
2017-11-30T20:45:46.499Z,4.80
2017-11-30T20:48:14.835Z,4.80
2017-11-30T20:50:43.140Z,4.80
2017-11-30T20:53:12.213Z,4.81
2017-11-30T20:55:40.558Z,4.84
2017-11-30T20:58:08.867Z,4.87
2017-11-30T21:00:37.205Z,4.89
2017-11-30T21:03:05.509Z,4.91
2017-11-30T21:05:33.831Z,4.92
2017-11-30T21:08:02.150Z,4.94
2017-11-30T21:10:31.311Z,4.95
2017-11-30T21:13:00.406Z,4.98
2017-11-30T21:15:29.497Z,4.99
2017-11-30T21:17:58.403Z,4.97
2017-11-30T21:20:26.714Z,4.94
2017-11-30T21:22:55.023Z,4.94
2017-11-30T21:25:25.114Z,4.92
2017-11-30T21:27:53.449Z,4.87
2017-11-30T21:30:21.781Z,4.81
2017-11-30T21:32:50.124Z,4.75
2017-11-30T21:35:19.198Z,4.71
2017-11-30T21:37:48.071Z,4.66
2017-11-30T21:40:16.379Z,4.61
2017-11-30T21:42:44.688Z,4.57
2017-11-30T21:45:13.771Z,4.54
2017-11-30T21:47:42.078Z,4.52
2017-11-30T21:50:10.407Z,4.49
2017-11-30T21:52:38.725Z,4.45
2017-11-30T21:55:07.078Z,4.44
2017-11-30T21:57:35.390Z,4.46
2017-11-30T22:00:04.495Z,4.45
2017-11-30T22:02:33.563Z,4.44
2017-11-30T22:05:01.889Z,4.42
2017-11-30T22:07:30.212Z,4.43
2017-11-30T22:09:58.543Z,4.42
2017-11-30T22:12:27.607Z,4.43
2017-11-30T22:14:55.920Z,4.39
2017-11-30T22:17:24.993Z,4.36
2017-11-30T22:19:54.174Z,4.32
2017-11-30T22:22:22.467Z,4.32
2017-11-30T22:24:50.831Z,4.30
2017-11-30T22:27:19.154Z,4.24
2017-11-30T22:29:48.330Z,4.22
2017-11-30T22:32:16.666Z,4.20
2017-11-30T22:34:45.061Z,4.20
2017-11-30T22:37:13.403Z,4.17
2017-11-30T22:39:43.366Z,4.19
2017-11-30T22:42:11.687Z,4.15
2017-11-30T22:44:40.767Z,4.13
2017-11-30T22:47:09.089Z,4.10
2017-11-30T22:49:37.413Z,4.08
2017-11-30T22:52:05.718Z,4.08
2017-11-30T22:54:34.864Z,4.03
2017-11-30T22:57:03.175Z,4.00
2017-11-30T22:59:32.297Z,3.97
2017-11-30T23:02:00.625Z,3.94
2017-11-30T23:04:28.939Z,3.94
2017-11-30T23:06:57.245Z,3.94
2017-11-30T23:09:25.637Z,3.97
2017-11-30T23:11:53.979Z,3.97
2017-11-30T23:14:22.335Z,3.97
2017-11-30T23:16:50.641Z,3.94
2017-11-30T23:19:18.927Z,3.94
2017-11-30T23:21:47.227Z,3.92
2017-11-30T23:24:15.558Z,3.88
2017-11-30T23:26:43.868Z,3.85
2017-11-30T23:29:12.204Z,3.87
2017-11-30T23:31:40.549Z,3.89
2017-11-30T23:34:08.889Z,3.89
2017-11-30T23:36:37.192Z,3.92
2017-11-30T23:39:05.798Z,3.91
2017-11-30T23:41:34.108Z,3.91
2017-11-30T23:44:03.196Z,3.93
2017-11-30T23:46:31.518Z,3.94
2017-11-30T23:48:59.855Z,3.94
2017-11-30T23:51:28.176Z,3.93
2017-11-30T23:53:56.501Z,3.93
2017-11-30T23:56:24.820Z,3.92
2017-11-30T23:58:53.155Z,3.92
